Time;durP1;ratioP1;P1;durP2;ratioP2;P2;SDS_P1;SDS_P2;PMS_P1;PMS_P2;Temp;Humidity;BMP_temperature;BMP_pressure;BME280_temperature;BME280_humidity;BME280_pressure;Samples;Min_cycle;Max_cycle;Signal;HPM_P1;HPM_P2
2021/12/13 00:00:20;;;;;;;30.02;26.40;;;11.60;99.90;;;;;;5014132;28;20068;-77
2021/12/13 00:02:56;;;;;;;21.88;19.67;;;11.60;99.90;;;;;;5031227;28;20033;-76
2021/12/13 00:05:40;;;;;;;21.02;19.02;;;11.60;99.90;;;;;;5031794;28;20017;-75
2021/12/13 00:08:12;;;;;;;19.65;17.75;;;11.60;99.90;;;;;;5013900;28;20053;-75
2021/12/13 00:10:45;;;;;;;19.45;17.65;;;11.60;99.90;;;;;;5031060;28;20038;-75
2021/12/13 00:13:23;;;;;;;19.58;17.70;;;11.60;99.90;;;;;;5013836;28;20119;-77
2021/12/13 00:15:56;;;;;;;20.98;18.88;;;11.60;99.90;;;;;;5013555;28;20478;-75
2021/12/13 00:18:39;;;;;;;19.50;17.60;;;11.60;99.90;;;;;;5031482;28;20018;-76
2021/12/13 00:21:14;;;;;;;19.67;17.70;;;11.60;99.90;;;;;;5031888;28;20108;-76
2021/12/13 00:23:49;;;;;;;17.40;15.63;;;11.60;99.90;;;;;;5013703;28;20100;-76
2021/12/13 00:26:45;;;;;;;18.27;16.38;;;11.60;99.90;;;;;;5012615;28;20077;-77
2021/12/13 00:29:16;;;;;;;16.40;14.80;;;11.60;99.90;;;;;;5012698;28;20037;-77
2021/12/13 00:31:50;;;;;;;19.38;17.42;;;11.60;99.90;;;;;;5020995;28;20029;-77
2021/12/13 00:34:41;;;;;;;18.83;17.02;;;11.60;99.90;;;;;;5030395;28;20056;-78
2021/12/13 00:37:10;;;;;;;19.52;17.63;;;11.50;99.90;;;;;;4993848;28;20113;-77
2021/12/13 00:39:51;;;;;;;18.60;16.80;;;11.50;99.90;;;;;;4994090;28;20447;-76
2021/12/13 00:42:19;;;;;;;16.65;15.05;;;11.50;99.90;;;;;;5011515;28;20055;-77
2021/12/13 00:44:49;;;;;;;17.23;15.45;;;11.50;99.90;;;;;;5011407;28;20358;-77
2021/12/13 00:47:28;;;;;;;17.98;16.08;;;11.50;99.90;;;;;;5013385;28;20120;-77
2021/12/13 00:50:26;;;;;;;18.30;15.38;;;11.50;99.90;;;;;;5013028;28;20374;-77
2021/12/13 00:52:53;;;;;;;16.77;15.05;;;11.50;99.90;;;;;;5001091;28;20037;-78
2021/12/13 00:55:26;;;;;;;19.80;17.50;;;11.50;99.90;;;;;;5013898;28;20025;-77
2021/12/13 00:58:09;;;;;;;17.00;15.20;;;11.50;99.90;;;;;;5013114;28;20056;-77
2021/12/13 01:00:45;;;;;;;16.52;14.77;;;11.40;99.90;;;;;;5013174;28;20030;-77
2021/12/13 01:03:32;;;;;;;17.27;15.23;;;11.40;99.90;;;;;;5013595;28;20424;-77
2021/12/13 01:06:36;;;;;;;14.38;12.88;;;11.40;99.90;;;;;;5013615;28;20528;-76
2021/12/13 01:09:39;;;;;;;14.20;12.18;;;11.40;99.90;;;;;;5013248;28;20021;-79
2021/12/13 01:12:09;;;;;;;15.88;12.90;;;11.40;99.90;;;;;;5009482;28;20049;-77
2021/12/13 01:14:58;;;;;;;14.80;13.35;;;11.40;99.90;;;;;;5009616;28;20489;-78
2021/12/13 01:17:54;;;;;;;14.57;12.73;;;11.40;99.90;;;;;;5011508;28;20037;-77
2021/12/13 01:20:29;;;;;;;15.55;13.02;;;11.50;99.90;;;;;;5007734;28;20081;-77
2021/12/13 01:23:04;;;;;;;14.02;12.60;;;11.50;99.90;;;;;;5011558;28;20205;-77
2021/12/13 01:26:01;;;;;;;15.63;13.88;;;11.50;99.90;;;;;;5011785;28;20402;-77
2021/12/13 01:28:41;;;;;;;14.35;12.85;;;11.50;99.90;;;;;;4997620;28;20022;-76
2021/12/13 01:31:14;;;;;;;15.32;13.80;;;11.50;99.90;;;;;;5013853;28;20030;-77
2021/12/13 01:33:44;;;;;;;19.58;14.52;;;11.50;99.90;;;;;;5010544;28;20038;-77
2021/12/13 01:36:13;;;;;;;16.20;14.60;;;11.50;99.90;;;;;;5013721;28;20037;-78
2021/12/13 01:38:46;;;;;;;13.40;12.00;;;11.50;99.90;;;;;;5011936;28;20054;-77
2021/12/13 01:41:20;;;;;;;12.88;11.57;;;11.50;99.90;;;;;;5015059;28;20500;-77
2021/12/13 01:43:57;;;;;;;13.48;12.18;;;11.50;99.90;;;;;;5013705;28;20025;-77
2021/12/13 01:46:23;;;;;;;14.30;12.90;;;11.50;99.90;;;;;;5012185;28;20422;-77
2021/12/13 01:48:52;;;;;;;14.27;12.75;;;11.40;99.90;;;;;;5012598;28;20026;-77
2021/12/13 01:51:23;;;;;;;14.30;12.70;;;11.40;99.90;;;;;;5013731;28;20030;-77
2021/12/13 01:53:55;;;;;;;14.00;12.45;;;11.40;99.90;;;;;;5012774;28;20076;-76
2021/12/13 01:56:59;;;;;;;13.50;12.25;;;11.40;99.90;;;;;;5013304;28;20025;-77
2021/12/13 02:02:34;;;;;;;14.73;13.32;;;11.40;99.90;;;;;;5013845;28;20042;-76
2021/12/13 02:05:13;;;;;;;14.55;12.82;;;11.40;99.90;;;;;;5008412;28;20026;-76
2021/12/13 02:07:53;;;;;;;15.70;14.05;;;11.40;99.90;;;;;;4996398;28;20021;-76
2021/12/13 02:10:35;;;;;;;15.43;13.82;;;11.40;99.90;;;;;;5018051;28;20041;-77
2021/12/13 02:13:23;;;;;;;14.77;13.25;;;11.40;99.90;;;;;;5015363;28;20033;-76
2021/12/13 02:18:47;;;;;;;14.50;12.98;;;11.40;99.90;;;;;;5035627;28;20071;-78
2021/12/13 02:21:27;;;;;;;14.02;12.63;;;11.40;99.90;;;;;;4997049;28;20478;-76
2021/12/13 02:24:06;;;;;;;13.07;11.73;;;11.50;99.90;;;;;;4997830;28;20484;-77
2021/12/13 02:26:35;;;;;;;13.63;12.40;;;11.50;99.90;;;;;;5014763;28;20521;-77
2021/12/13 02:29:11;;;;;;;16.80;14.40;;;11.50;99.90;;;;;;4996680;28;20030;-78
2021/12/13 02:31:39;;;;;;;16.52;14.82;;;11.40;99.90;;;;;;5001122;28;20022;-77
2021/12/13 02:34:07;;;;;;;16.08;14.48;;;11.50;99.90;;;;;;5010366;28;20387;-78
2021/12/13 02:36:45;;;;;;;17.67;15.88;;;11.50;99.90;;;;;;5015781;28;20025;-77
2021/12/13 02:39:15;;;;;;;16.88;15.20;;;11.50;99.90;;;;;;5017507;28;20041;-77
2021/12/13 02:41:43;;;;;;;17.83;16.13;;;11.50;99.90;;;;;;5017393;28;20461;-79
2021/12/13 02:44:29;;;;;;;17.23;15.65;;;11.50;99.90;;;;;;5017721;28;20030;-78
2021/12/13 02:46:59;;;;;;;19.70;17.85;;;11.50;99.90;;;;;;5017828;28;20025;-77
2021/12/13 02:49:25;;;;;;;19.02;17.23;;;11.50;99.90;;;;;;5016777;28;20418;-77
2021/12/13 02:52:01;;;;;;;21.05;18.95;;;11.50;99.90;;;;;;5021829;28;20021;-78
2021/12/13 02:54:31;;;;;;;21.52;19.13;;;11.50;99.90;;;;;;5018328;28;20061;-76
2021/12/13 02:57:11;;;;;;;20.85;18.70;;;11.50;99.90;;;;;;5014562;28;20017;-78
2021/12/13 02:59:40;;;;;;;22.92;19.52;;;11.40;99.90;;;;;;5021542;28;20041;-79
2021/12/13 03:02:27;;;;;;;22.30;20.10;;;11.50;99.90;;;;;;5016188;28;20013;-77
2021/12/13 03:04:53;;;;;;;22.05;19.92;;;11.50;99.90;;;;;;5014658;28;20083;-78
2021/12/13 03:07:33;;;;;;;24.05;21.48;;;11.50;99.90;;;;;;5015667;28;20397;-77
2021/12/13 03:10:03;;;;;;;22.35;20.20;;;11.40;99.90;;;;;;5015627;28;20055;-79
2021/12/13 03:12:29;;;;;;;20.58;18.48;;;11.40;99.90;;;;;;5015924;28;20029;-79
2021/12/13 03:15:03;;;;;;;19.10;17.30;;;11.40;99.90;;;;;;5033700;28;20440;-78
2021/12/13 03:17:41;;;;;;;19.77;17.85;;;11.40;99.90;;;;;;5014328;28;20029;-78
2021/12/13 03:20:15;;;;;;;18.77;16.98;;;11.30;99.90;;;;;;5015803;28;20019;-77
2021/12/13 03:22:48;;;;;;;16.33;14.88;;;11.40;99.90;;;;;;5015864;28;20036;-78
2021/12/13 03:25:56;;;;;;;16.83;15.23;;;11.40;99.90;;;;;;5015270;28;20029;-77
2021/12/13 03:28:38;;;;;;;15.93;14.30;;;11.40;99.90;;;;;;5016029;28;20049;-77
2021/12/13 03:31:25;;;;;;;17.33;15.63;;;11.30;99.90;;;;;;5014740;28;20021;-77
2021/12/13 03:33:51;;;;;;;15.30;13.90;;;11.30;99.90;;;;;;5015242;28;20037;-77
2021/12/13 03:36:23;;;;;;;16.67;15.00;;;11.30;99.90;;;;;;5014432;28;20496;-77
2021/12/13 03:38:52;;;;;;;15.48;14.07;;;11.30;99.90;;;;;;5014371;28;20025;-77
2021/12/13 03:41:21;;;;;;;15.63;14.13;;;11.30;99.90;;;;;;5014716;28;20109;-78
2021/12/13 03:43:58;;;;;;;13.70;12.30;;;11.30;99.90;;;;;;5032728;28;20033;-78
2021/12/13 03:46:28;;;;;;;13.30;12.00;;;11.30;99.90;;;;;;5012712;28;20029;-77
2021/12/13 03:48:56;;;;;;;13.45;12.15;;;11.30;99.90;;;;;;5014689;28;20026;-78
2021/12/13 03:51:27;;;;;;;13.77;12.48;;;11.30;99.90;;;;;;5014427;28;20121;-78
2021/12/13 03:53:56;;;;;;;13.82;12.43;;;11.20;99.90;;;;;;5014283;28;20441;-80
2021/12/13 03:56:28;;;;;;;14.02;12.68;;;11.20;99.90;;;;;;5014110;28;20013;-77
2021/12/13 03:59:05;;;;;;;;;;;11.20;99.90;;;;;;5032480;28;20025;-78
2021/12/13 04:01:42;;;;;;;12.32;11.02;;;11.20;99.90;;;;;;5031017;28;20444;-78
2021/12/13 04:04:15;;;;;;;14.60;11.68;;;11.20;99.90;;;;;;5014607;28;20025;-77
2021/12/13 04:06:48;;;;;;;12.35;11.18;;;11.20;99.90;;;;;;5013377;28;20116;-78
2021/12/13 04:09:15;;;;;;;10.93;9.93;;;11.20;99.90;;;;;;5014231;28;20025;-77
2021/12/13 04:11:45;;;;;;;11.98;10.68;;;11.20;99.90;;;;;;5031568;28;20511;-77
2021/12/13 04:14:20;;;;;;;11.95;10.75;;;11.20;99.90;;;;;;5013499;28;20030;-77
2021/12/13 04:17:07;;;;;;;13.30;12.00;;;11.10;99.90;;;;;;5014274;28;20063;-78
2021/12/13 04:19:48;;;;;;;12.57;11.38;;;11.10;99.90;;;;;;5031136;28;20029;-77
2021/12/13 04:22:17;;;;;;;11.60;10.48;;;11.10;99.90;;;;;;5013333;28;20544;-77
2021/12/13 04:24:56;;;;;;;12.15;10.95;;;11.10;99.90;;;;;;5031731;28;20044;-78
2021/12/13 04:27:26;;;;;;;12.05;10.88;;;11.10;99.90;;;;;;5013836;28;20522;-78
2021/12/13 04:30:26;;;;;;;11.95;10.75;;;11.10;99.90;;;;;;5014116;28;20040;-78
2021/12/13 04:32:59;;;;;;;13.27;11.98;;;11.10;99.90;;;;;;5014064;28;20057;-78
2021/12/13 04:35:27;;;;;;;13.25;11.95;;;11.10;99.90;;;;;;5012517;28;20095;-78
2021/12/13 04:37:55;;;;;;;13.98;11.05;;;11.10;99.90;;;;;;5013988;28;20014;-77
2021/12/13 04:40:28;;;;;;;12.57;11.27;;;11.10;99.90;;;;;;5030948;28;20109;-77
2021/12/13 04:43:00;;;;;;;12.98;11.65;;;11.10;99.90;;;;;;5012989;28;20116;-77
2021/12/13 04:45:28;;;;;;;12.73;11.43;;;11.10;99.90;;;;;;5013489;28;20028;-77
2021/12/13 04:48:16;;;;;;;11.85;10.65;;;11.00;99.90;;;;;;5013520;28;20022;-77
2021/12/13 04:50:47;;;;;;;13.55;10.68;;;11.00;99.90;;;;;;5012612;28;20029;-77
2021/12/13 04:53:29;;;;;;;14.20;12.38;;;11.00;99.90;;;;;;5013581;28;20021;-77
2021/12/13 04:56:00;;;;;;;13.65;12.02;;;11.00;99.90;;;;;;5030902;28;20116;-78
2021/12/13 04:58:26;;;;;;;13.05;11.75;;;11.00;99.90;;;;;;5012807;28;20084;-78
2021/12/13 05:00:55;;;;;;;14.27;12.00;;;11.00;99.90;;;;;;5013601;28;20067;-78
2021/12/13 05:03:26;;;;;;;14.23;12.73;;;10.90;99.90;;;;;;5012458;28;20018;-79
2021/12/13 05:05:52;;;;;;;13.95;12.43;;;10.90;99.90;;;;;;5013554;28;20028;-79
2021/12/13 05:08:20;;;;;;;13.30;11.85;;;11.00;99.90;;;;;;5011939;28;20019;-78
2021/12/13 05:10:48;;;;;;;13.27;11.23;;;11.00;99.90;;;;;;5011627;28;20034;-78
2021/12/13 05:13:23;;;;;;;15.27;12.93;;;11.00;99.90;;;;;;5011367;28;20036;-77
2021/12/13 05:16:00;;;;;;;13.98;11.93;;;11.00;99.90;;;;;;5011875;28;20401;-77
2021/12/13 05:18:30;;;;;;;13.25;11.85;;;11.00;99.90;;;;;;5026925;28;20030;-78
2021/12/13 05:21:00;;;;;;;14.05;12.55;;;11.00;99.90;;;;;;5011655;28;20053;-78
2021/12/13 05:23:28;;;;;;;13.20;11.65;;;11.00;99.90;;;;;;5008721;28;20026;-77
2021/12/13 05:25:57;;;;;;;17.20;13.88;;;10.90;99.90;;;;;;5012450;28;20382;-78
2021/12/13 05:28:39;;;;;;;14.95;13.35;;;10.90;99.90;;;;;;5008748;28;20092;-79
2021/12/13 05:31:10;;;;;;;13.68;11.52;;;11.00;99.90;;;;;;5007726;28;20083;-78
2021/12/13 05:33:38;;;;;;;13.68;11.77;;;10.90;99.90;;;;;;5013372;28;20060;-77
2021/12/13 05:36:17;;;;;;;13.93;12.43;;;10.90;99.90;;;;;;5013194;28;20030;-77
2021/12/13 05:38:46;;;;;;;16.67;14.13;;;11.00;99.90;;;;;;5029595;28;20029;-77
2021/12/13 05:41:28;;;;;;;15.52;13.82;;;10.90;99.90;;;;;;4999593;28;20034;-77
2021/12/13 05:43:59;;;;;;;16.42;14.23;;;10.90;99.90;;;;;;4993891;28;20117;-76
2021/12/13 05:46:39;;;;;;;19.00;15.15;;;10.90;99.90;;;;;;4993150;28;20065;-76
2021/12/13 05:49:09;;;;;;;16.77;14.00;;;10.90;99.90;;;;;;5011883;28;20026;-78
2021/12/13 05:51:44;;;;;;;15.57;13.90;;;10.90;99.90;;;;;;5023916;28;20502;-77
2021/12/13 05:54:12;;;;;;;15.50;13.77;;;10.90;99.90;;;;;;5030246;28;20052;-77
2021/12/13 05:56:49;;;;;;;17.58;15.13;;;10.90;99.90;;;;;;5013319;28;20036;-79
2021/12/13 05:59:20;;;;;;;17.88;14.15;;;10.90;99.90;;;;;;5012638;28;20029;-78
2021/12/13 06:02:36;;;;;;;14.80;13.30;;;10.90;99.90;;;;;;5005468;28;20025;-77
2021/12/13 06:05:13;;;;;;;17.42;15.32;;;10.90;99.90;;;;;;4978882;28;20049;-76
2021/12/13 06:07:41;;;;;;;15.98;13.48;;;10.90;99.90;;;;;;5001744;28;20022;-75
2021/12/13 06:10:11;;;;;;;14.75;13.25;;;10.80;99.90;;;;;;5000204;28;20025;-78
2021/12/13 06:12:48;;;;;;;17.20;14.23;;;10.80;99.90;;;;;;5016727;28;20047;-79
2021/12/13 06:15:17;;;;;;;18.25;14.20;;;10.80;99.90;;;;;;5013860;28;20045;-77
2021/12/13 06:18:10;;;;;;;16.15;13.65;;;10.80;99.90;;;;;;5031694;28;20055;-80
2021/12/13 06:21:23;;;;;;;16.15;13.60;;;10.80;99.90;;;;;;4997841;28;20041;-80
2021/12/13 16:39:32;;;;;;;6.65;4.22;;;10.50;99.90;;;;;;6042022;23;21312;-82
2021/12/13 16:42:07;;;;;;;6.50;5.80;;;10.50;99.90;;;;;;5000878;28;20088;-83
2021/12/13 16:44:37;;;;;;;6.32;5.63;;;10.50;99.90;;;;;;5009194;28;20072;-87
2021/12/13 16:47:06;;;;;;;18.67;13.98;;;10.50;99.90;;;;;;5009376;28;20021;-83
2021/12/13 16:49:33;;;;;;;22.83;18.40;;;10.50;99.90;;;;;;5009586;28;20088;-86
2021/12/13 16:52:12;;;;;;;21.75;17.13;;;10.50;99.90;;;;;;5009477;28;20025;-84
2021/12/13 16:54:43;;;;;;;17.88;13.98;;;10.50;99.90;;;;;;5006206;28;20214;-83
2021/12/13 16:57:26;;;;;;;15.25;13.70;;;10.50;99.90;;;;;;5009169;28;20340;-88
2021/12/13 16:59:55;;;;;;;12.18;10.98;;;10.50;99.90;;;;;;5009636;28;20022;-91
2021/12/13 17:02:26;;;;;;;9.35;8.10;;;10.50;99.90;;;;;;5009127;28;20018;-84
2021/12/13 17:05:02;;;;;;;6.82;6.13;;;10.40;99.90;;;;;;5012262;28;20041;-92
2021/12/13 17:07:36;;;;;;;5.25;4.75;;;10.50;99.90;;;;;;5010992;28;20477;-87
2021/12/13 17:10:23;;;;;;;4.35;3.92;;;10.40;99.90;;;;;;5009797;28;20045;-83
2021/12/13 17:12:58;;;;;;;4.60;3.75;;;10.50;99.90;;;;;;5011162;28;20406;-82
2021/12/13 17:16:02;;;;;;;4.72;4.22;;;10.50;99.90;;;;;;5009547;28;20433;-82
2021/12/13 17:18:34;;;;;;;4.45;3.30;;;10.50;99.90;;;;;;5010629;28;20202;-82
2021/12/13 17:21:02;;;;;;;4.75;4.25;;;10.50;99.90;;;;;;5010218;28;20036;-83
2021/12/13 17:23:41;;;;;;;5.57;4.97;;;10.50;99.90;;;;;;5003988;28;20116;-76
2021/12/13 17:26:28;;;;;;;8.73;7.82;;;10.50;99.90;;;;;;5008602;28;20018;-84
2021/12/13 17:29:21;;;;;;;7.18;6.50;;;10.50;99.90;;;;;;5010140;28;20022;-85
2021/12/13 17:32:08;;;;;;;6.35;5.75;;;10.50;99.90;;;;;;5009824;28;20109;-88
2021/12/13 17:34:45;;;;;;;5.20;4.70;;;10.50;99.90;;;;;;5009637;28;20040;-89
2021/12/13 17:37:25;;;;;;;6.47;5.05;;;10.50;99.90;;;;;;5005540;28;20470;-82
2021/12/13 17:39:57;;;;;;;6.32;4.38;;;10.50;99.90;;;;;;4990539;28;20026;-87
2021/12/13 17:42:23;;;;;;;5.60;4.10;;;10.50;99.90;;;;;;4984526;28;20034;-81
2021/12/13 17:45:15;;;;;;;5.03;4.45;;;10.40;99.90;;;;;;4975930;28;20049;-81
2021/12/13 17:47:41;;;;;;;5.28;4.50;;;10.50;99.90;;;;;;4972273;28;20161;-80
2021/12/13 17:50:34;;;;;;;5.43;3.30;;;10.50;99.90;;;;;;4988845;28;20049;-83
2021/12/13 17:53:04;;;;;;;4.00;3.58;;;10.50;99.90;;;;;;4988780;28;20104;-83
2021/12/13 17:55:35;;;;;;;3.63;3.33;;;10.50;99.90;;;;;;4986988;28;20048;-86
2021/12/13 17:58:02;;;;;;;3.72;3.42;;;10.50;99.90;;;;;;4987732;28;20030;-79
2021/12/13 18:00:38;;;;;;;6.03;3.85;;;10.50;99.90;;;;;;4985989;28;20041;-87
2021/12/13 18:03:20;;;;;;;4.07;3.50;;;10.40;99.90;;;;;;4986777;28;20130;-89
2021/12/13 18:05:47;;;;;;;4.80;3.67;;;10.50;99.90;;;;;;4987265;28;20026;-88
2021/12/13 18:08:16;;;;;;;6.72;4.43;;;10.40;99.90;;;;;;4982115;28;20036;-85
2021/12/13 18:10:42;;;;;;;4.43;4.03;;;10.40;99.90;;;;;;4988153;28;20077;-81
2021/12/13 18:13:14;;;;;;;5.05;4.03;;;10.40;99.90;;;;;;4990865;28;20045;-80
2021/12/13 18:15:44;;;;;;;;;;;10.40;99.90;;;;;;4991663;28;20070;-79
2021/12/13 18:18:28;;;;;;;106.80;41.42;;;10.40;99.90;;;;;;4989089;28;19917;-80
2021/12/13 18:21:00;;;;;;;125.03;54.67;;;10.50;99.90;;;;;;4990396;28;20096;-79
2021/12/13 18:23:54;;;;;;;110.25;50.22;;;10.50;99.90;;;;;;4987313;28;20030;-81
2021/12/13 18:27:17;;;;;;;70.60;36.35;;;10.50;99.90;;;;;;4983842;28;20050;-81
2021/12/13 18:30:32;;;;;;;35.25;18.65;;;10.40;99.90;;;;;;4989638;28;20092;-84
2021/12/13 18:33:00;;;;;;;15.13;10.85;;;10.40;99.90;;;;;;4963465;28;20046;-81
2021/12/13 18:35:42;;;;;;;9.85;7.32;;;10.40;99.90;;;;;;4987237;28;20066;-79
2021/12/13 18:38:42;;;;;;;9.00;5.50;;;10.40;99.90;;;;;;4989158;28;20030;-89
2021/12/13 18:41:15;;;;;;;7.57;4.80;;;10.40;99.90;;;;;;5001923;28;20042;-86
2021/12/13 18:44:11;;;;;;;5.80;4.65;;;10.40;99.90;;;;;;5007682;28;20030;-79
2021/12/13 18:46:41;;;;;;;7.13;3.75;;;10.30;99.90;;;;;;5008133;28;20397;-80
2021/12/13 18:49:10;;;;;;;4.20;3.65;;;10.30;99.90;;;;;;5006177;28;20018;-82
2021/12/13 18:51:44;;;;;;;4.15;3.72;;;10.30;99.90;;;;;;5006188;28;20029;-79
2021/12/13 18:54:13;;;;;;;6.03;3.85;;;10.30;99.90;;;;;;5007521;28;20088;-80
2021/12/13 18:56:39;;;;;;;4.32;3.72;;;10.40;99.90;;;;;;5007199;28;20512;-83
2021/12/13 18:59:22;;;;;;;6.03;4.05;;;10.40;99.90;;;;;;5008790;28;20030;-84
2021/12/13 19:01:57;;;;;;;5.72;3.95;;;10.40;99.90;;;;;;5010538;28;20032;-78
2021/12/13 19:04:27;;;;;;;4.28;3.80;;;10.40;99.90;;;;;;5009176;28;20041;-83
2021/12/13 19:06:58;;;;;;;4.28;3.88;;;10.30;99.90;;;;;;5006420;28;20116;-82
2021/12/13 19:09:35;;;;;;;4.80;4.03;;;10.30;99.90;;;;;;5007424;28;20484;-83
2021/12/13 19:12:24;;;;;;;5.25;3.72;;;10.30;99.90;;;;;;5009817;28;20033;-85
2021/12/13 19:14:57;;;;;;;3.78;3.47;;;10.30;99.90;;;;;;5008598;28;20759;-79
2021/12/13 19:17:33;;;;;;;5.28;3.85;;;10.30;99.90;;;;;;5009239;28;20033;-85
2021/12/13 19:20:05;;;;;;;4.70;3.78;;;10.30;99.90;;;;;;5007096;28;20504;-82
2021/12/13 19:22:38;;;;;;;5.60;3.67;;;10.30;99.90;;;;;;5015839;28;20561;-82
2021/12/13 19:25:12;;;;;;;5.50;3.50;;;10.30;99.90;;;;;;5021854;28;20027;-81
2021/12/13 19:27:45;;;;;;;6.75;4.07;;;10.30;99.90;;;;;;5006667;28;20030;-81
2021/12/13 19:30:20;;;;;;;5.03;4.38;;;10.20;99.90;;;;;;5007138;28;20030;-82
2021/12/13 19:33:00;;;;;;;4.15;3.50;;;10.20;99.90;;;;;;5006820;28;20057;-82
2021/12/13 19:35:40;;;;;;;9.02;6.47;;;10.30;99.90;;;;;;5004579;28;20042;-83
2021/12/13 19:38:24;;;;;;;7.75;6.95;;;10.30;99.90;;;;;;5009412;28;20051;-83
2021/12/13 19:40:59;;;;;;;8.93;6.22;;;10.20;99.90;;;;;;5006963;28;20056;-81
2021/12/13 19:43:54;;;;;;;5.97;5.47;;;10.30;99.90;;;;;;5008822;28;20026;-82
2021/12/13 19:46:41;;;;;;;5.78;5.18;;;10.30;99.90;;;;;;5007161;28;20720;-80
2021/12/13 19:49:30;;;;;;;6.20;4.82;;;10.20;99.90;;;;;;5006739;28;20030;-82
2021/12/13 19:52:00;;;;;;;4.80;4.15;;;10.20;99.90;;;;;;5001246;28;20045;-83
2021/12/13 19:54:36;;;;;;;5.40;3.88;;;10.20;99.90;;;;;;5007856;28;20358;-81
2021/12/13 19:57:12;;;;;;;4.25;3.85;;;10.20;99.90;;;;;;5004788;28;20160;-84
2021/12/13 19:59:48;;;;;;;4.30;3.45;;;10.10;99.90;;;;;;5006746;28;20032;-84
2021/12/13 20:02:42;;;;;;;4.43;4.03;;;10.20;99.90;;;;;;5006106;28;20048;-83
2021/12/13 20:05:10;;;;;;;5.80;4.85;;;10.20;99.90;;;;;;5007255;28;20068;-83
2021/12/13 20:07:40;;;;;;;6.43;4.97;;;10.10;99.90;;;;;;5007425;28;20041;-81
2021/12/13 20:10:11;;;;;;;6.38;4.97;;;10.20;99.90;;;;;;5007991;28;20037;-81
2021/12/13 20:12:49;;;;;;;7.13;4.00;;;10.10;99.90;;;;;;5005640;28;20129;-80
2021/12/13 20:15:32;;;;;;;5.10;3.80;;;10.10;99.90;;;;;;5005934;28;20133;-83
2021/12/13 20:18:08;;;;;;;5.53;3.55;;;10.10;99.90;;;;;;5007027;28;20037;-81
2021/12/13 20:20:44;;;;;;;4.50;3.65;;;10.10;99.90;;;;;;4987962;28;20034;-82
2021/12/13 20:23:25;;;;;;;7.38;3.55;;;10.10;99.90;;;;;;5009396;28;20041;-81
2021/12/13 20:25:59;;;;;;;5.47;4.10;;;10.10;99.90;;;;;;5006277;28;20026;-80
2021/12/13 20:28:47;;;;;;;4.18;3.70;;;10.10;99.90;;;;;;4988120;28;20022;-78
2021/12/13 20:31:32;;;;;;;3.60;3.28;;;10.10;99.90;;;;;;5003915;28;20121;-83
2021/12/13 20:34:07;;;;;;;5.65;3.90;;;10.10;99.90;;;;;;5005938;28;20025;-79
2021/12/13 20:45:17;;;;;;;4.65;3.40;;;10.10;99.90;;;;;;5291923;23;20057;-86
2021/12/13 20:47:46;;;;;;;4.25;3.10;;;10.10;99.90;;;;;;4971459;28;20022;-89
2021/12/13 20:50:37;;;;;;;6.07;4.45;;;10.10;99.90;;;;;;4967761;28;20053;-81
2021/12/13 20:53:09;;;;;;;10.13;7.80;;;10.10;99.90;;;;;;4968972;28;20109;-82
2021/12/13 20:55:44;;;;;;;9.85;7.35;;;10.10;99.90;;;;;;4974259;28;20041;-81
2021/12/13 20:58:45;;;;;;;10.45;8.25;;;10.10;99.90;;;;;;4959645;28;20097;-78
2021/12/13 21:01:19;;;;;;;11.07;8.73;;;10.00;99.90;;;;;;4957951;28;20509;-84
2021/12/13 21:04:02;;;;;;;7.70;6.90;;;10.00;99.90;;;;;;4966520;28;20031;-81
2021/12/13 21:06:44;;;;;;;8.27;6.82;;;10.00;99.90;;;;;;4967393;28;20062;-79
2021/12/13 21:09:15;;;;;;;9.82;7.28;;;10.00;99.90;;;;;;4988676;28;20042;-85
2021/12/13 21:12:15;;;;;;;9.85;8.23;;;10.00;99.90;;;;;;4988995;28;20038;-85
2021/12/13 21:15:22;;;;;;;13.55;10.02;;;10.00;99.90;;;;;;4966320;28;20137;-86
2021/12/13 21:17:58;;;;;;;22.20;15.00;;;10.00;99.90;;;;;;4972747;28;20030;-87
2021/12/13 21:20:50;;;;;;;35.60;24.15;;;10.00;99.90;;;;;;4985922;28;20113;-86
2021/12/13 21:23:56;;;;;;;50.40;32.45;;;10.00;99.90;;;;;;4972876;28;20030;-92
2021/12/13 21:26:32;;;;;;;52.45;35.35;;;10.10;99.90;;;;;;4973658;28;20030;-92
2021/12/13 21:29:05;;;;;;;48.92;33.33;;;10.00;99.90;;;;;;4991650;28;20490;-90
2021/12/13 21:32:05;;;;;;;32.60;23.52;;;10.10;99.90;;;;;;4974585;28;20030;-89
2021/12/13 21:34:39;;;;;;;;;;;10.00;99.90;;;;;;4989455;28;20052;-87
2021/12/13 21:41:10;;;;;;;10.30;8.35;;;10.10;99.90;;;;;;4970352;28;20045;-84
